Latest Coastal Weather Observations for Geelong Racecourse

IDV60701

Issued at 7:11 am EDT Thursday 19 January 2017 (issued every 10 minutes, with the page automatically refreshed every 10 minutes)

About coastal observations | Map of coastal stations | Coastal observations for VIC | Marine services | Other Formats
Station Details ID: 087184 Name: GEELONG RACECOURSE Lat: -38.17 Lon: 144.38 Height: 12.9 m
Data from the previous 72 hours. | See also: Recent months at Geelong Racecourse
Date/Time
EDT
Temp
°C
Wind Pressure Rain since
9am
mm
Weather Cloud Vis
km
Sea
Height
m
Swell
Dir  Spd
kts
Gust
kts
hPa Trend Height
m
Period
s
Dir
19/07:00am 13.4 SSE 4 6 1015.0 - 0.0 - - - - - - -
19/06:30am 12.8 S 4 5 1015.1 - 0.0 - - - - - - -
19/06:00am 12.8 SSE 3 4 1014.8 - 0.0 - - - - - - -
19/05:30am 12.5 SSE 2 3 1014.9 - 0.0 - - - - - - -
19/05:00am 12.8 SSE 4 5 1014.7 - 0.0 - - - - - - -
19/04:30am 13.0 SSE 4 6 1015.1 - 0.0 - - - - - - -
19/04:00am 13.1 SSE 5 7 1015.3 - 0.0 - - - - - - -
19/03:30am 13.1 SSE 5 7 1015.2 - 0.0 - - - - - - -
19/03:00am 12.8 SSE 5 7 1015.7 - 0.0 - - - - - - -
19/02:30am 13.0 S 6 9 1016.1 - 0.0 - - - - - - -
19/02:00am 12.9 S 5 7 1016.4 - 0.0 - - - - - - -
19/01:30am 12.9 S 4 7 1016.6 - 0.0 - - - - - - -
19/01:00am 13.4 SSE 6 9 1016.7 - 0.0 - - - - - - -
19/12:30am 13.3 SSE 6 12 1017.0 - 0.0 - - - - - - -
19/12:00am 13.8 SSE 7 10 1017.2 - 0.0 - - - - - - -
 
Date/Time
EDT
Temp
°C
Wind Pressure Rain since
9am
mm
Weather Cloud Vis
km
Sea
Height
m
Swell
Dir  Spd
kts
Gust
kts
hPa Trend Height
m
Period
s
Dir
18/11:30pm 13.6 S 7 10 1017.4 - 0.0 - - - - - - -
18/11:00pm 14.0 S 7 11 1017.6 - 0.0 - - - - - - -
18/10:30pm 14.2 SSE 7 10 1017.6 - 0.0 - - - - - - -
18/10:00pm 14.6 SSE 7 11 1017.5 - 0.0 - - - - - - -
18/09:30pm 14.7 S 9 14 1017.3 - 0.0 - - - - - - -
18/09:00pm 15.1 SSE 8 12 1017.3 - 0.0 - - - - - - -
18/08:30pm 15.8 S 12 16 1017.2 - 0.0 - - - - - - -
18/08:00pm 16.4 S 13 18 1017.1 - 0.0 - - - - - - -
18/07:30pm 17.0 S 13 19 1016.9 - 0.0 - - - - - - -
18/07:00pm 17.5 S 15 22 1016.6 - 0.0 - - - - - - -
18/06:30pm 18.0 S 15 20 1016.5 - 0.0 - - - - - - -
18/06:00pm 18.2 S 15 21 1016.5 - 0.0 - - - - - - -
18/05:30pm 18.8 S 15 21 1016.4 - 0.0 - - - - - - -
18/05:00pm 18.9 S 15 20 1016.5 - 0.0 - - - - - - -
18/04:30pm 19.1 S 14 20 1016.5 - 0.0 - - - - - - -
18/04:00pm 19.6 S 15 22 1016.4 - 0.0 - - - - - - -
18/03:30pm 20.1 S 16 23 1016.3 - 0.0 - - - - - - -
18/03:00pm 20.1 S 15 21 1016.3 - 0.0 - - - - - - -
18/02:30pm 20.2 S 14 21 1016.3 - 0.0 - - - - - - -
18/02:00pm 20.4 S 15 23 1016.3 - 0.0 - - - - - - -
18/01:30pm 20.2 S 15 24 1016.4 - 0.0 - - - - - - -
18/01:00pm 19.6 S 16 21 1016.2 - 0.0 - - - - - - -
18/12:30pm 20.0 S 16 23 1016.0 - 0.0 - - - - - - -
18/12:00pm 19.9 SSW 15 21 1015.7 - 0.0 - - - - - - -
18/11:30am 19.7 SSW 16 21 1015.4 - 0.0 - - - - - - -
18/11:00am 18.8 S 15 21 1015.2 - 0.0 - - - - - - -
18/10:30am 18.0 SSW 14 22 1014.9 - 0.0 - - - - - - -
18/10:00am 18.4 SW 13 18 1014.6 - 0.0 - - - - - - -
18/09:30am 18.9 SSW 11 16 1014.2 - 0.0 - - - - - - -
18/09:00am 17.4 SSW 14 18 1014.1 - 0.0 - - - - - - -
18/08:30am 17.5 SSW 14 18 1013.7 - 0.0 - - - - - - -
18/08:00am 17.8 SSW 12 18 1013.4 - 0.0 - - - - - - -
18/07:30am 16.4 SSW 10 13 1013.1 - 0.0 - - - - - - -
18/07:00am 15.9 SW 12 17 1012.6 - 0.0 - - - - - - -
18/06:30am 16.1 SW 11 14 1011.8 - 0.0 - - - - - - -
18/06:00am 16.1 SW 10 14 1011.2 - 0.0 - - - - - - -
18/05:30am 16.0 SSW 10 15 1010.4 - 0.0 - - - - - - -
18/05:00am 15.4 SSW 10 15 1010.3 - 0.0 - - - - - - -
18/04:30am 16.8 SSW 8 15 1009.3 - 0.0 - - - - - - -
18/04:00am 17.1 SSW 6 11 1009.6 - 0.0 - - - - - - -
18/03:30am 17.3 SSE 5 8 1009.2 - 0.0 - - - - - - -
18/03:00am 17.5 SSE 4 6 1009.4 - 0.0 - - - - - - -
18/02:30am 18.1 S 4 6 1009.9 - 0.0 - - - - - - -
18/02:00am 18.2 SSW 3 6 1010.5 - 0.0 - - - - - - -
18/01:30am 18.3 SSW 3 4 1010.3 - 0.0 - - - - - - -
18/01:00am 18.3 S 5 8 1010.5 - 0.0 - - - - - - -
18/12:30am 18.4 SSW 2 3 1010.4 - 0.0 - - - - - - -
18/12:00am 18.7 S 3 4 1010.5 - 0.0 - - - - - - -
 
Date/Time
EDT
Temp
°C
Wind Pressure Rain since
9am
mm
Weather Cloud Vis
km
Sea
Height
m
Swell
Dir  Spd
kts
Gust
kts
hPa Trend Height
m
Period
s
Dir
17/11:30pm 18.8 SSE 3 4 1010.2 - 0.0 - - - - - - -
17/11:00pm 18.9 S 5 9 1010.4 - 0.0 - - - - - - -
17/10:30pm 19.1 S 8 10 1010.4 - 0.0 - - - - - - -
17/10:00pm 19.5 S 12 15 1010.1 - 0.0 - - - - - - -
17/09:30pm 20.2 S 10 15 1008.9 - 0.0 - - - - - - -
17/09:00pm 20.6 S 8 11 1009.1 - 0.0 - - - - - - -
17/08:30pm 20.9 S 7 9 1007.2 - 0.0 - - - - - - -
17/08:00pm 21.2 S 7 9 1007.0 - 0.0 - - - - - - -
17/07:30pm 21.4 S 7 9 1005.9 - 0.0 - - - - - - -
17/07:00pm 21.9 SSE 8 11 1005.6 - 0.0 - - - - - - -
17/06:30pm 22.1 SSE 8 12 1005.0 - 0.0 - - - - - - -
17/06:00pm 23.1 SSE 10 15 1005.1 - 0.0 - - - - - - -
17/05:30pm 24.9 SSE 13 18 1005.2 - 0.0 - - - - - - -
17/05:00pm 26.4 S 11 15 1004.9 - 0.0 - - - - - - -
17/04:30pm 27.6 S 13 19 1005.3 - 0.0 - - - - - - -
17/04:00pm 29.6 S 11 18 1005.5 - 0.0 - - - - - - -
17/03:48pm 30.7 S 12 16 1005.2 - 0.0 - - - - - - -
17/03:30pm 35.7 WSW 11 17 1005.2 - 0.0 - - - - - - -
17/03:00pm 36.2 W 9 14 1005.4 - 0.0 - - - - - - -
17/02:30pm 35.5 NW 8 13 1006.0 - 0.0 - - - - - - -
17/02:00pm 34.3 W 8 11 1006.3 - 0.0 - - - - - - -
17/01:30pm 33.3 WNW 9 17 1007.0 - 0.0 - - - - - - -
17/01:00pm 32.9 WSW 6 9 1007.3 - 0.0 - - - - - - -
17/12:30pm 33.1 WSW 9 15 1007.6 - 0.0 - - - - - - -
17/12:00pm 32.9 WSW 7 12 1007.9 - 0.0 - - - - - - -
17/11:30am 31.2 WNW 5 7 1008.0 - 0.0 - - - - - - -
17/11:00am 29.2 N 1 2 1008.1 - 0.0 - - - - - - -
17/10:30am 27.8 NNW 3 5 1008.2 - 0.0 - - - - - - -
17/10:00am 26.0 NNW 3 4 1008.6 - 0.0 - - - - - - -
17/09:30am 24.2 NW 4 5 1008.7 - 0.0 - - - - - - -
17/09:00am 22.8 NW 3 5 1009.0 - 0.2 - - - - - - -
17/08:30am 21.9 N 4 5 1009.0 - 0.2 - - - - - - -
17/08:00am 20.7 CALM 0 1 1009.3 - 0.2 - - - - - - -
17/07:30am 19.6 NW 3 5 1008.6 - 0.2 - - - - - - -
17/07:00am 18.5 NW 4 5 1008.4 - 0.2 - - - - - - -
17/06:30am 17.8 WNW 5 7 1008.3 - 0.2 - - - - - - -
17/06:00am 18.1 NW 2 2 1008.1 - 0.2 - - - - - - -
17/05:30am 18.1 CALM 0 1 1007.9 - 0.2 - - - - - - -
17/05:00am 18.6 NW 3 5 1007.8 - 0.2 - - - - - - -
17/04:30am 17.6 CALM 0 0 1007.4 - 0.2 - - - - - - -
17/04:00am 17.7 CALM 0 0 1007.4 - 0.2 - - - - - - -
17/03:30am 17.7 SSW 1 2 1007.4 - 0.2 - - - - - - -
17/03:00am 17.8 CALM 0 0 1007.5 - 0.2 - - - - - - -
17/02:30am 17.8 CALM 0 0 1007.6 - 0.2 - - - - - - -
17/02:00am 18.0 CALM 0 0 1007.9 - 0.2 - - - - - - -
17/01:30am 18.1 NNW 1 2 1008.4 - 0.2 - - - - - - -
17/01:00am 18.5 CALM 0 0 1008.6 - 0.2 - - - - - - -
17/12:30am 18.9 CALM 0 0 1009.0 - 0.2 - - - - - - -
17/12:00am 18.8 CALM 0 0 1009.4 - 0.2 - - - - - - -
 
Date/Time
EDT
Temp
°C
Wind Pressure Rain since
9am
mm
Weather Cloud Vis
km
Sea
Height
m
Swell
Dir  Spd
kts
Gust
kts
hPa Trend Height
m
Period
s
Dir
16/11:30pm 18.4 CALM 0 3 1009.8 - 0.2 - - - - - - -
16/11:00pm 18.8 CALM 0 0 1009.9 - 0.2 - - - - - - -
16/10:30pm 19.0 S 1 3 1010.5 - 0.2 - - - - - - -
16/10:00pm 18.9 SSW 3 4 1010.8 - 0.2 - - - - - - -
16/09:30pm 19.3 SSW 4 6 1010.5 - 0.2 - - - - - - -
16/09:00pm 19.7 SSW 5 7 1010.5 - 0.2 - - - - - - -
16/08:30pm 21.1 S 7 9 1010.3 - 0.2 - - - - - - -
16/08:00pm 22.5 S 9 11 1010.4 - 0.2 - - - - - - -
16/07:30pm 24.2 S 7 9 1010.2 - 0.2 - - - - - - -
16/07:00pm 23.4 S 9 11 1010.5 - 0.2 - - - - - - -
16/06:30pm 25.5 S 8 12 1010.3 - 0.2 - - - - - - -
16/06:00pm 28.0 SSE 8 12 1010.0 - 0.2 - - - - - - -
16/05:30pm 28.6 SSE 9 13 1010.2 - 0.2 - - - - - - -
16/05:00pm 28.6 SSE 9 13 1010.4 - 0.2 - - - - - - -
16/04:30pm 29.4 SSE 10 13 1010.5 - 0.2 - - - - - - -
16/04:00pm 29.9 E 4 9 1010.7 - 0.2 - - - - - - -
16/03:30pm 29.6 NE 5 8 1011.2 - 0.2 - - - - - - -
16/03:00pm 28.8 NE 5 9 1011.7 - 0.2 - - - - - - -
16/02:30pm 27.3 NNE 7 11 1012.0 - 0.2 - - - - - - -
16/02:00pm 26.8 NE 5 7 1012.6 - 0.2 - - - - - - -
16/01:30pm 25.4 NE 5 8 1013.2 - 0.2 - - - - - - -
16/01:00pm 24.8 NE 6 9 1013.7 - 0.2 - - - - - - -
16/12:30pm 23.4 NE 5 8 1014.1 - 0.2 - - - - - - -
16/12:00pm 21.6 NE 5 7 1014.6 - 0.2 Rain - - - - - -
16/11:30am 21.0 NNE 5 10 1014.8 - 0.0 - - - - - - -
16/11:00am 20.6 NE 6 10 1015.0 - 0.0 - - - - - - -
16/10:30am 20.1 NE 5 8 1015.6 - 0.0 - - - - - - -
16/10:00am 19.4 NNE 5 7 1015.8 - 0.0 - - - - - - -
16/09:30am 18.3 NE 6 9 1016.0 - 0.0 - - - - - - -
16/09:00am 18.0 NE 5 9 1015.8 - 0.0 - - - - - - -
16/08:30am 17.4 NNE 5 8 1016.0 - 0.0 - - - - - - -
16/08:00am 15.9 CALM 0 0 1016.1 - 0.0 - - - - - - -
16/07:30am 14.8 CALM 0 0 1015.9 - 0.0 - - - - - - -

Other Formats:

Comma delimited format used in spreadsheet applications
http://www.bom.gov.au/fwo/IDV60701/IDV60701.94857.axf

JavaScript Object Notation format (JSON) in row-major order
http://www.bom.gov.au/fwo/IDV60701/IDV60701.94857.json